createdAt,value
2022-11-05T00:01:16.005Z,10.64
2022-11-05T00:03:52.751Z,10.62
2022-11-05T00:06:28.588Z,10.59
2022-11-05T00:09:04.650Z,10.59
2022-11-05T00:11:40.868Z,10.56
2022-11-05T00:14:17.860Z,10.54
2022-11-05T00:16:44.862Z,10.54
2022-11-05T00:19:11.749Z,10.53
2022-11-05T00:21:48.741Z,10.49
2022-11-05T00:24:24.591Z,10.44
2022-11-05T00:26:51.371Z,10.49
2022-11-05T00:29:18.172Z,10.54
2022-11-05T00:31:44.906Z,10.56
2022-11-05T00:34:11.688Z,10.55
2022-11-05T00:36:38.540Z,10.56
2022-11-05T00:39:06.070Z,10.59
2022-11-05T00:41:32.870Z,10.59
2022-11-05T00:44:08.640Z,10.57
2022-11-05T00:46:35.459Z,10.57
2022-11-05T00:49:11.602Z,10.61
2022-11-05T00:51:38.450Z,10.63
2022-11-05T00:54:05.299Z,10.63
2022-11-05T00:56:32.090Z,10.64
2022-11-05T00:58:58.779Z,10.69
2022-11-05T01:01:25.973Z,10.70
2022-11-05T01:03:52.879Z,10.68
2022-11-05T01:06:19.787Z,10.64
2022-11-05T01:08:46.610Z,10.63
2022-11-05T01:11:33.572Z,10.57
2022-11-05T01:14:02.035Z,10.52
2022-11-05T01:16:28.888Z,10.53
2022-11-05T01:18:55.630Z,10.55
2022-11-05T01:21:22.390Z,10.58
2022-11-05T01:23:49.258Z,10.61
2022-11-05T01:26:16.041Z,10.62
2022-11-05T01:28:42.922Z,10.62
2022-11-05T01:31:09.800Z,10.62
2022-11-05T01:33:36.518Z,10.65
2022-11-05T01:36:05.157Z,10.65
2022-11-05T01:38:32.029Z,10.62
2022-11-05T01:40:59.088Z,10.58
2022-11-05T01:43:25.867Z,10.59
2022-11-05T01:45:56.403Z,10.59
2022-11-05T01:48:25.798Z,10.62
2022-11-05T01:50:57.641Z,10.61
2022-11-05T01:53:25.799Z,10.63
2022-11-05T01:56:01.803Z,10.65
2022-11-05T01:58:32.777Z,10.63
2022-11-05T02:00:59.609Z,10.66
2022-11-05T02:03:27.037Z,10.62
2022-11-05T02:05:56.829Z,10.60
2022-11-05T02:08:43.569Z,10.59
2022-11-05T02:11:12.537Z,10.57
2022-11-05T02:13:39.288Z,10.58
2022-11-05T02:16:09.306Z,10.55
2022-11-05T02:18:41.588Z,10.50
2022-11-05T02:21:17.693Z,10.49
2022-11-05T02:23:53.841Z,10.48
2022-11-05T02:26:29.219Z,10.46
2022-11-05T02:29:05.851Z,10.46
2022-11-05T02:31:33.009Z,10.47
2022-11-05T02:34:00.989Z,10.47
2022-11-05T02:36:36.979Z,10.48
2022-11-05T02:39:04.067Z,10.46
2022-11-05T02:41:36.129Z,10.46
2022-11-05T02:44:13.032Z,10.43
2022-11-05T02:46:48.286Z,10.40
2022-11-05T02:49:18.273Z,10.39
2022-11-05T02:51:50.766Z,10.37
2022-11-05T02:54:19.918Z,10.31
2022-11-05T02:56:48.637Z,10.30
2022-11-05T02:59:15.389Z,10.32
2022-11-05T03:01:43.229Z,10.32
2022-11-05T03:04:12.427Z,10.32
2022-11-05T03:06:50.136Z,10.34
2022-11-05T03:09:24.968Z,10.34
2022-11-05T03:12:05.089Z,10.31
2022-11-05T03:14:40.194Z,10.32
2022-11-05T03:17:11.641Z,10.32
2022-11-05T03:19:44.419Z,10.31
2022-11-05T03:22:14.989Z,10.30
2022-11-05T03:24:45.781Z,10.28
2022-11-05T03:27:15.559Z,10.27
2022-11-05T03:29:46.279Z,10.27
2022-11-05T03:32:15.640Z,10.27
2022-11-05T03:34:46.118Z,10.26
2022-11-05T03:37:13.007Z,10.23
2022-11-05T03:39:42.309Z,10.21
2022-11-05T03:42:12.380Z,10.20
2022-11-05T03:44:42.449Z,10.21
2022-11-05T03:47:11.361Z,10.19
2022-11-05T03:49:41.321Z,10.19
2022-11-05T03:54:52.102Z,10.17
2022-11-05T03:57:26.849Z,10.20
2022-11-05T03:59:53.658Z,10.22
2022-11-05T04:02:22.424Z,10.22
2022-11-05T04:04:49.351Z,10.21
2022-11-05T04:07:28.539Z,10.21
2022-11-05T04:10:04.838Z,10.22
2022-11-05T04:12:41.676Z,10.23
2022-11-05T04:15:08.849Z,10.24
2022-11-05T04:17:35.959Z,10.27
2022-11-05T04:20:13.501Z,10.28
2022-11-05T04:22:50.157Z,10.31
2022-11-05T04:25:17.668Z,10.35
2022-11-05T04:27:45.378Z,10.36
2022-11-05T04:30:20.485Z,10.35
2022-11-05T04:32:57.367Z,10.35
2022-11-05T04:35:24.558Z,10.39
2022-11-05T04:37:51.423Z,10.42
2022-11-05T04:40:18.259Z,10.47
2022-11-05T04:42:45.148Z,10.48
2022-11-05T04:45:12.704Z,10.47
2022-11-05T04:47:39.776Z,10.51
2022-11-05T04:50:10.998Z,10.53
2022-11-05T04:52:37.848Z,10.54
2022-11-05T04:55:05.291Z,10.55
2022-11-05T04:57:32.309Z,10.56
2022-11-05T04:59:59.446Z,10.57
2022-11-05T05:02:26.488Z,10.57
2022-11-05T05:04:53.319Z,10.56
2022-11-05T05:07:19.988Z,10.54
2022-11-05T05:09:46.666Z,10.56
2022-11-05T05:12:13.456Z,10.56
2022-11-05T05:14:40.317Z,10.60
2022-11-05T05:17:07.079Z,10.62
2022-11-05T05:19:53.969Z,10.59
2022-11-05T05:22:20.830Z,10.60
2022-11-05T05:24:52.538Z,10.61
2022-11-05T05:27:19.859Z,10.61
2022-11-05T05:29:46.571Z,10.60
2022-11-05T05:32:13.279Z,10.64
2022-11-05T05:34:40.058Z,10.69
2022-11-05T05:37:07.058Z,10.70
2022-11-05T05:39:33.849Z,10.76
2022-11-05T05:42:00.626Z,10.78
2022-11-05T05:44:27.388Z,10.81
2022-11-05T05:46:55.575Z,10.82
2022-11-05T05:49:22.372Z,10.83
2022-11-05T05:51:50.131Z,10.86
2022-11-05T05:54:17.201Z,10.89
2022-11-05T05:56:44.511Z,10.87
2022-11-05T05:59:11.626Z,10.86
2022-11-05T06:01:38.565Z,10.88
2022-11-05T06:04:05.494Z,10.88
2022-11-05T06:06:32.320Z,10.88
2022-11-05T06:08:59.003Z,10.87
2022-11-05T06:11:25.810Z,10.88
2022-11-05T06:13:52.812Z,10.87
2022-11-05T06:16:19.736Z,10.87
2022-11-05T06:18:46.875Z,10.86
2022-11-05T06:21:14.958Z,10.87
2022-11-05T06:23:42.799Z,10.85
2022-11-05T06:26:11.458Z,10.86
2022-11-05T06:28:38.269Z,10.88
2022-11-05T06:31:05.470Z,10.88
2022-11-05T06:33:32.508Z,10.92
2022-11-05T06:36:00.207Z,10.93
2022-11-05T06:38:27.035Z,10.94
2022-11-05T06:40:53.799Z,10.95
2022-11-05T06:43:20.677Z,10.95
2022-11-05T06:45:47.407Z,10.96
2022-11-05T06:48:14.259Z,10.98
2022-11-05T06:50:44.055Z,10.98
2022-11-05T06:53:11.164Z,10.96
2022-11-05T06:55:38.269Z,10.93
2022-11-05T06:58:05.189Z,10.92
2022-11-05T07:00:32.244Z,10.95
2022-11-05T07:03:08.900Z,11.02
2022-11-05T07:05:37.686Z,11.04
2022-11-05T07:08:04.655Z,11.06
2022-11-05T07:10:31.490Z,11.07
2022-11-05T07:12:59.695Z,11.08
2022-11-05T07:15:28.330Z,11.11
2022-11-05T07:17:57.428Z,11.09
2022-11-05T07:20:25.098Z,11.08
2022-11-05T07:23:03.800Z,11.07
2022-11-05T07:25:31.438Z,11.12
2022-11-05T07:27:58.275Z,11.17
2022-11-05T07:30:25.391Z,11.20
2022-11-05T07:32:52.309Z,11.22
2022-11-05T07:35:19.258Z,11.18
2022-11-05T07:37:47.555Z,11.18
2022-11-05T07:40:15.625Z,11.18
2022-11-05T07:42:43.927Z,11.21
2022-11-05T07:45:10.999Z,11.18
2022-11-05T07:47:39.026Z,11.18
2022-11-05T07:50:06.437Z,11.20
2022-11-05T07:52:33.295Z,11.26
2022-11-05T07:55:00.068Z,11.28
2022-11-05T07:57:26.839Z,11.32
2022-11-05T07:59:53.648Z,11.35
2022-11-05T08:02:20.625Z,11.37
2022-11-05T08:04:47.558Z,11.39
2022-11-05T08:07:14.430Z,11.42
2022-11-05T08:09:41.171Z,11.45
2022-11-05T08:12:09.008Z,11.48
2022-11-05T08:14:35.837Z,11.51
2022-11-05T08:17:02.562Z,11.55
2022-11-05T08:19:29.328Z,11.59
2022-11-05T08:21:55.982Z,11.58
2022-11-05T08:24:22.737Z,11.58
2022-11-05T08:26:49.466Z,11.61
2022-11-05T08:29:16.192Z,11.65
2022-11-05T08:31:42.927Z,11.70
2022-11-05T08:34:09.677Z,11.75
2022-11-05T08:36:36.528Z,11.76
2022-11-05T08:39:03.555Z,11.77
2022-11-05T08:41:30.306Z,11.76
2022-11-05T08:43:57.157Z,11.76
2022-11-05T08:46:23.879Z,11.76
2022-11-05T08:48:50.582Z,11.76
2022-11-05T08:51:17.468Z,11.80
2022-11-05T08:53:44.201Z,11.82
2022-11-05T08:56:11.046Z,11.82
2022-11-05T08:58:37.942Z,11.81
2022-11-05T09:01:05.516Z,11.81
2022-11-05T09:03:32.990Z,11.83
2022-11-05T09:05:59.696Z,11.86
2022-11-05T09:08:26.469Z,11.89
2022-11-05T09:10:53.243Z,11.91
2022-11-05T09:13:20.578Z,11.93
2022-11-05T09:15:48.797Z,11.95
2022-11-05T09:18:16.247Z,11.96
2022-11-05T09:20:43.117Z,11.98
2022-11-05T09:23:10.792Z,12.03
2022-11-05T09:25:37.978Z,12.03
2022-11-05T09:28:16.821Z,12.05
2022-11-05T09:30:46.970Z,12.08
2022-11-05T09:33:14.163Z,12.09
2022-11-05T09:35:41.619Z,12.12
2022-11-05T09:38:08.538Z,12.16
2022-11-05T09:40:48.027Z,12.19
2022-11-05T09:43:19.119Z,12.19
2022-11-05T09:45:48.687Z,12.23
2022-11-05T09:48:17.987Z,12.24
2022-11-05T09:50:45.977Z,12.29
2022-11-05T09:53:14.712Z,12.32
2022-11-05T09:55:43.793Z,12.34
2022-11-05T09:58:13.787Z,12.34
2022-11-05T10:00:40.720Z,12.35
2022-11-05T10:03:11.999Z,12.38
2022-11-05T10:05:40.313Z,12.42
2022-11-05T10:08:12.879Z,12.44
2022-11-05T10:10:50.202Z,12.48
2022-11-05T10:13:26.986Z,12.51
2022-11-05T10:15:53.958Z,12.56
2022-11-05T10:18:25.967Z,12.58
2022-11-05T10:20:52.891Z,12.62
2022-11-05T10:23:20.620Z,12.68
2022-11-05T10:25:51.895Z,12.71
2022-11-05T10:28:20.949Z,12.76
2022-11-05T10:30:49.899Z,12.76
2022-11-05T10:33:19.812Z,12.79
2022-11-05T10:35:50.439Z,12.81
2022-11-05T10:38:17.252Z,12.85
2022-11-05T10:40:49.447Z,12.91
2022-11-05T10:43:22.307Z,12.93
2022-11-05T10:46:00.049Z,12.97
2022-11-05T10:48:27.029Z,13.01
2022-11-05T10:50:53.886Z,13.04
2022-11-05T10:53:22.718Z,13.07
2022-11-05T10:55:51.165Z,13.10
2022-11-05T10:58:18.298Z,13.14
2022-11-05T11:01:00.579Z,13.18
2022-11-05T11:03:28.570Z,13.21
2022-11-05T11:06:04.638Z,13.25
2022-11-05T11:08:33.771Z,13.30
2022-11-05T11:11:03.589Z,13.33
2022-11-05T11:13:46.842Z,13.35
2022-11-05T11:16:16.395Z,13.38
2022-11-05T11:18:43.721Z,13.41
2022-11-05T11:21:15.127Z,13.41
2022-11-05T11:23:43.258Z,13.44
2022-11-05T11:26:12.534Z,13.46
2022-11-05T11:28:43.701Z,13.48
2022-11-05T11:31:19.815Z,13.49
2022-11-05T11:33:48.759Z,13.52
2022-11-05T11:36:18.118Z,13.55
2022-11-05T11:38:45.139Z,13.56
2022-11-05T11:41:12.628Z,13.54
2022-11-05T11:43:42.529Z,13.53
2022-11-05T11:46:15.200Z,13.52
2022-11-05T11:48:46.198Z,13.55
2022-11-05T11:51:20.279Z,13.58
2022-11-05T11:53:48.339Z,13.60
2022-11-05T11:56:17.254Z,13.60
2022-11-05T11:58:45.333Z,13.61
2022-11-05T12:01:12.433Z,13.63
2022-11-05T12:03:45.237Z,13.70
2022-11-05T12:06:12.237Z,13.71
2022-11-05T12:08:47.005Z,13.73
2022-11-05T12:11:20.321Z,13.71
2022-11-05T12:13:53.620Z,13.75
2022-11-05T12:16:29.918Z,13.79
2022-11-05T12:19:06.301Z,13.79
2022-11-05T12:21:52.630Z,13.78
2022-11-05T12:24:29.823Z,13.75
2022-11-05T12:27:06.258Z,13.77
2022-11-05T12:29:42.784Z,13.80
2022-11-05T12:32:13.975Z,13.79
2022-11-05T12:34:42.141Z,13.80
2022-11-05T12:37:18.880Z,13.81
2022-11-05T12:39:49.017Z,13.84
2022-11-05T12:42:19.075Z,13.84
2022-11-05T12:44:51.520Z,13.85
2022-11-05T12:50:45.945Z,13.92
2022-11-05T12:53:21.979Z,13.92
2022-11-05T12:55:49.979Z,13.92
2022-11-05T12:58:22.933Z,13.92
2022-11-05T13:00:53.279Z,13.98
2022-11-05T13:03:29.939Z,14.08
2022-11-05T13:06:02.937Z,14.12
2022-11-05T13:08:37.409Z,14.12
2022-11-05T13:11:24.090Z,14.14
2022-11-05T13:14:00.801Z,14.13
2022-11-05T13:16:34.325Z,14.13
2022-11-05T13:19:10.927Z,14.10
2022-11-05T13:21:38.828Z,14.08
2022-11-05T13:24:13.002Z,14.08
2022-11-05T13:26:44.636Z,14.09
2022-11-05T13:29:18.105Z,14.11
2022-11-05T13:31:49.974Z,14.13
2022-11-05T13:34:16.789Z,14.13
2022-11-05T13:36:58.648Z,14.11
2022-11-05T13:39:29.561Z,14.12
2022-11-05T13:41:57.603Z,14.12
2022-11-05T13:44:34.997Z,14.12
2022-11-05T13:47:14.135Z,14.13
2022-11-05T13:49:49.920Z,14.13
2022-11-05T13:52:17.167Z,14.13
2022-11-05T13:54:53.848Z,14.15
2022-11-05T13:57:30.192Z,14.15
2022-11-05T14:00:06.939Z,14.16
2022-11-05T14:02:37.333Z,14.20
2022-11-05T14:05:06.022Z,14.22
2022-11-05T14:07:35.581Z,14.21
2022-11-05T14:10:12.204Z,14.22
2022-11-05T14:12:40.325Z,14.21
2022-11-05T14:15:17.873Z,14.22
2022-11-05T14:17:53.898Z,14.20
2022-11-05T14:20:29.933Z,14.21
2022-11-05T14:23:09.705Z,14.20
2022-11-05T14:25:36.949Z,14.24
2022-11-05T14:28:23.704Z,14.26
2022-11-05T14:30:50.631Z,14.25
2022-11-05T14:33:32.157Z,14.24
2022-11-05T14:36:08.875Z,14.24
2022-11-05T14:38:35.861Z,14.27
2022-11-05T14:41:03.739Z,14.26
2022-11-05T14:43:33.406Z,14.29
2022-11-05T14:46:02.458Z,14.29
2022-11-05T14:48:30.639Z,14.31
2022-11-05T14:50:57.653Z,14.32
2022-11-05T14:53:34.239Z,14.38
2022-11-05T14:56:03.768Z,14.36
2022-11-05T14:58:36.089Z,14.40
2022-11-05T15:01:05.788Z,14.41
2022-11-05T15:03:36.903Z,14.42
2022-11-05T15:06:15.994Z,14.44
2022-11-05T15:08:50.067Z,14.45
2022-11-05T15:11:20.581Z,14.46
2022-11-05T15:13:51.917Z,14.45
2022-11-05T15:16:23.966Z,14.45
2022-11-05T15:18:51.474Z,14.45
2022-11-05T15:21:20.354Z,14.47
2022-11-05T15:23:49.353Z,14.49
2022-11-05T15:26:24.191Z,14.49
2022-11-05T15:28:55.418Z,14.51
2022-11-05T15:31:27.175Z,14.52
2022-11-05T15:34:09.946Z,14.54
2022-11-05T15:36:36.976Z,14.53
2022-11-05T15:39:29.120Z,14.50
2022-11-05T15:41:56.993Z,14.50
2022-11-05T15:44:24.714Z,14.50
2022-11-05T15:47:05.211Z,14.52
2022-11-05T15:49:32.281Z,14.55
2022-11-05T15:51:59.173Z,14.52
2022-11-05T15:54:30.647Z,14.51
2022-11-05T15:56:59.534Z,14.57
2022-11-05T15:59:27.782Z,14.66
2022-11-05T16:01:58.045Z,14.69
2022-11-05T16:04:28.204Z,14.64
2022-11-05T16:06:57.613Z,14.61
2022-11-05T16:09:24.844Z,14.58
2022-11-05T16:12:01.116Z,14.61
2022-11-05T16:14:35.505Z,14.62
2022-11-05T16:17:10.419Z,14.61
2022-11-05T16:19:42.628Z,14.60
2022-11-05T16:22:09.559Z,14.58
2022-11-05T16:24:36.708Z,14.58
2022-11-05T16:27:04.247Z,14.58
2022-11-05T16:29:39.776Z,14.59
2022-11-05T16:32:19.014Z,14.60
2022-11-05T16:34:48.142Z,14.63
2022-11-05T16:37:16.616Z,14.64
2022-11-05T16:39:43.673Z,14.66
2022-11-05T16:42:30.601Z,14.70
2022-11-05T16:44:57.558Z,14.70
2022-11-05T16:47:26.576Z,14.69
2022-11-05T16:49:53.701Z,14.66
2022-11-05T16:52:21.734Z,14.68
2022-11-05T16:54:48.814Z,14.69
2022-11-05T16:57:23.513Z,14.69
2022-11-05T16:59:50.531Z,14.69
2022-11-05T17:02:17.860Z,14.69
2022-11-05T17:04:44.986Z,14.69
2022-11-05T17:07:12.123Z,14.70
2022-11-05T17:09:39.134Z,14.69
2022-11-05T17:12:06.052Z,14.70
2022-11-05T17:14:32.969Z,14.70
2022-11-05T17:17:00.932Z,14.69
2022-11-05T17:19:27.872Z,14.69
2022-11-05T17:21:54.680Z,14.70
2022-11-05T17:24:21.925Z,14.71
2022-11-05T17:26:48.796Z,14.76
2022-11-05T17:29:15.727Z,14.76
2022-11-05T17:31:42.737Z,14.77
2022-11-05T17:34:10.213Z,14.77
2022-11-05T17:36:37.250Z,14.77
2022-11-05T17:39:04.483Z,14.77
2022-11-05T17:41:31.339Z,14.77
2022-11-05T17:43:58.276Z,14.78
2022-11-05T17:46:25.227Z,14.79
2022-11-05T17:48:52.250Z,14.81
2022-11-05T17:51:20.233Z,14.84
2022-11-05T17:53:49.301Z,14.86
2022-11-05T17:56:27.191Z,14.85
2022-11-05T17:59:00.154Z,14.85
2022-11-05T18:01:31.275Z,14.86
2022-11-05T18:04:02.419Z,14.84
2022-11-05T18:06:31.061Z,14.84
2022-11-05T18:08:57.913Z,14.87
2022-11-05T18:11:24.792Z,14.92
2022-11-05T18:13:51.955Z,14.91
2022-11-05T18:16:19.020Z,14.91
2022-11-05T18:18:46.062Z,14.95
2022-11-05T18:21:13.078Z,14.96
2022-11-05T18:23:39.947Z,14.95
2022-11-05T18:26:08.871Z,14.99
2022-11-05T18:28:36.994Z,15.01
2022-11-05T18:31:06.389Z,15.02
2022-11-05T18:33:35.138Z,15.04
2022-11-05T18:36:02.399Z,15.07
2022-11-05T18:38:29.367Z,15.10
2022-11-05T18:40:56.502Z,15.08
2022-11-05T18:43:23.385Z,15.09
2022-11-05T18:45:57.269Z,15.11
2022-11-05T18:48:24.377Z,15.13
2022-11-05T18:50:52.015Z,15.13
2022-11-05T18:53:19.060Z,15.11
2022-11-05T18:55:45.958Z,15.11
2022-11-05T18:58:13.053Z,15.10
2022-11-05T19:00:40.410Z,15.11
2022-11-05T19:03:07.879Z,15.08
2022-11-05T19:05:34.790Z,15.09
2022-11-05T19:08:01.662Z,15.08
2022-11-05T19:10:28.531Z,15.09
2022-11-05T19:12:55.531Z,15.08
2022-11-05T19:15:22.460Z,15.09
2022-11-05T19:17:49.253Z,15.10
2022-11-05T19:20:16.089Z,15.12
2022-11-05T19:22:42.861Z,15.14
2022-11-05T19:25:09.747Z,15.15
2022-11-05T19:27:37.903Z,15.16
2022-11-05T19:30:05.372Z,15.17
2022-11-05T19:32:33.472Z,15.17
2022-11-05T19:35:00.309Z,15.18
2022-11-05T19:37:27.346Z,15.17
2022-11-05T19:39:54.401Z,15.19
2022-11-05T19:42:21.537Z,15.20
2022-11-05T19:44:48.301Z,15.21
2022-11-05T19:47:15.190Z,15.21
2022-11-05T19:49:42.164Z,15.23
2022-11-05T19:52:09.079Z,15.26
2022-11-05T19:54:36.449Z,15.27
2022-11-05T19:57:03.456Z,15.26
2022-11-05T19:59:30.469Z,15.29
2022-11-05T20:01:57.752Z,15.29
2022-11-05T20:04:24.697Z,15.31
2022-11-05T20:06:51.641Z,15.31
2022-11-05T20:09:23.103Z,15.33
2022-11-05T20:11:51.181Z,15.34
2022-11-05T20:14:18.377Z,15.35
2022-11-05T20:16:45.933Z,15.37
2022-11-05T20:19:15.942Z,15.35
2022-11-05T20:21:43.103Z,15.37
2022-11-05T20:24:11.728Z,15.36
2022-11-05T20:26:39.284Z,15.37
2022-11-05T20:29:06.458Z,15.38
2022-11-05T20:31:33.511Z,15.38
2022-11-05T20:34:00.599Z,15.38
2022-11-05T20:36:27.739Z,15.39
2022-11-05T20:38:56.751Z,15.39
2022-11-05T20:41:24.185Z,15.41
2022-11-05T20:43:51.663Z,15.40
2022-11-05T20:46:20.118Z,15.37
2022-11-05T20:48:47.266Z,15.37
2022-11-05T20:51:15.745Z,15.37
2022-11-05T20:53:43.004Z,15.37
2022-11-05T20:56:20.220Z,15.35
2022-11-05T20:58:47.834Z,15.36
2022-11-05T21:01:16.686Z,15.37
2022-11-05T21:03:44.358Z,15.38
2022-11-05T21:06:11.516Z,15.41
2022-11-05T21:08:38.794Z,15.41
2022-11-05T21:11:06.513Z,15.43
2022-11-05T21:13:33.493Z,15.45
2022-11-05T21:16:01.386Z,15.47
2022-11-05T21:18:30.975Z,15.47
2022-11-05T21:20:58.263Z,15.47
2022-11-05T21:23:25.135Z,15.51
2022-11-05T21:25:55.164Z,15.47
2022-11-05T21:28:22.374Z,15.45
2022-11-05T21:30:49.577Z,15.44
2022-11-05T21:33:17.497Z,15.45
2022-11-05T21:35:46.155Z,15.45
2022-11-05T21:38:14.674Z,15.46
2022-11-05T21:40:42.553Z,15.44
2022-11-05T21:43:11.486Z,15.45
2022-11-05T21:45:39.445Z,15.47
2022-11-05T21:48:07.344Z,15.48
2022-11-05T21:50:43.764Z,15.46
2022-11-05T21:53:23.782Z,15.44
2022-11-05T21:55:59.856Z,15.47
2022-11-05T21:58:47.646Z,15.49
2022-11-05T22:01:15.476Z,15.48
2022-11-05T22:03:42.444Z,15.48
2022-11-05T22:06:09.227Z,15.47
2022-11-05T22:08:36.083Z,15.47
2022-11-05T22:11:03.803Z,15.48
2022-11-05T22:13:30.602Z,15.49
2022-11-05T22:15:57.392Z,15.51
2022-11-05T22:18:24.181Z,15.54
2022-11-05T22:20:51.189Z,15.53
2022-11-05T22:23:18.777Z,15.53
2022-11-05T22:25:45.607Z,15.53
2022-11-05T22:28:12.569Z,15.55
2022-11-05T22:30:39.523Z,15.55
2022-11-05T22:33:06.433Z,15.55
2022-11-05T22:35:33.306Z,15.56
2022-11-05T22:38:00.111Z,15.57
2022-11-05T22:40:26.932Z,15.57
2022-11-05T22:42:53.734Z,15.58
2022-11-05T22:45:20.664Z,15.58
2022-11-05T22:47:47.464Z,15.58
2022-11-05T22:50:14.284Z,15.57
2022-11-05T22:52:41.322Z,15.59
2022-11-05T22:55:08.383Z,15.60
2022-11-05T22:57:35.234Z,15.60
2022-11-05T23:00:02.197Z,15.61
2022-11-05T23:02:29.192Z,15.63
2022-11-05T23:04:56.397Z,15.62
2022-11-05T23:07:32.720Z,15.62
2022-11-05T23:10:08.736Z,15.65
2022-11-05T23:12:38.190Z,15.69
2022-11-05T23:15:07.311Z,15.70
2022-11-05T23:17:43.699Z,15.69
2022-11-05T23:20:22.938Z,15.69
2022-11-05T23:22:59.659Z,15.70
2022-11-05T23:25:26.428Z,15.70
2022-11-05T23:27:54.279Z,15.70
2022-11-05T23:30:22.716Z,15.68
2022-11-05T23:32:50.130Z,15.69
2022-11-05T23:35:17.007Z,15.71
2022-11-05T23:37:53.778Z,15.74
2022-11-05T23:40:23.876Z,15.73
2022-11-05T23:42:59.850Z,15.71
2022-11-05T23:45:36.837Z,15.70
2022-11-05T23:48:22.640Z,15.71
2022-11-05T23:50:52.598Z,15.70
2022-11-05T23:53:20.642Z,15.68
2022-11-05T23:55:48.018Z,15.67
2022-11-05T23:58:15.659Z,15.69
